Time;durP1;ratioP1;P1;durP2;ratioP2;P2;SDS_P1;SDS_P2;PMS_P1;PMS_P2;Temp;Humidity;BMP_temperature;BMP_pressure;BME280_temperature;BME280_humidity;BME280_pressure;Samples;Min_cycle;Max_cycle;Signal;HPM_P1;HPM_P2
2022/07/17 00:02:20;;;;;;;7.90;2.42;;;;;;;;;;8396885;28;20044;-83
2022/07/17 00:06:23;;;;;;;4.45;2.53;;;;;;;;;;8396599;28;20140;-81
2022/07/17 00:10:26;;;;;;;6.68;2.65;;;;;;;;;;8382683;28;20060;-81
2022/07/17 00:14:29;;;;;;;4.40;2.47;;;;;;;;;;8396325;28;20064;-81
2022/07/17 00:18:33;;;;;;;4.22;2.67;;;;;;;;;;8396220;28;20119;-81
2022/07/17 00:22:36;;;;;;;3.50;2.55;;;;;;;;;;8396326;28;20045;-81
2022/07/17 00:26:39;;;;;;;5.22;2.50;;;;;;;;;;8396264;28;20369;-80
2022/07/17 00:30:41;;;;;;;4.57;2.60;;;;;;;;;;8395399;28;20058;-81
2022/07/17 00:34:45;;;;;;;6.30;2.72;;;;;;;;;;8400793;28;20044;-81
2022/07/17 00:38:48;;;;;;;7.30;2.63;;;;;;;;;;8401582;28;20127;-80
2022/07/17 00:42:51;;;;;;;7.95;2.70;;;;;;;;;;8401041;28;20040;-81
2022/07/17 00:46:54;;;;;;;5.18;2.38;;;;;;;;;;8400342;28;20048;-81
2022/07/17 00:50:59;;;;;;;7.22;2.45;;;;;;;;;;8401535;28;20055;-81
2022/07/17 00:55:02;;;;;;;5.75;2.47;;;;;;;;;;8400841;28;20075;-82
2022/07/17 00:59:06;;;;;;;3.30;1.98;;;;;;;;;;8400033;28;20522;-81
2022/07/17 01:03:10;;;;;;;6.50;2.38;;;;;;;;;;8398580;28;20128;-81
2022/07/17 01:07:14;;;;;;;6.60;2.33;;;;;;;;;;8400953;28;20044;-81
2022/07/17 01:11:17;;;;;;;7.00;2.20;;;;;;;;;;8400344;28;20044;-80
2022/07/17 01:15:20;;;;;;;6.25;2.33;;;;;;;;;;8399247;28;20120;-81
2022/07/17 01:19:23;;;;;;;6.07;2.45;;;;;;;;;;8399445;28;20044;-81
2022/07/17 01:23:27;;;;;;;4.22;2.45;;;;;;;;;;8400133;28;20127;-80
2022/07/17 01:27:29;;;;;;;5.93;1.98;;;;;;;;;;8400109;28;20396;-80
2022/07/17 01:31:32;;;;;;;5.05;1.92;;;;;;;;;;8398473;28;20049;-80
2022/07/17 01:35:35;;;;;;;4.60;2.03;;;;;;;;;;8399579;28;20455;-80
2022/07/17 01:39:55;;;;;;;4.93;2.45;;;;;;;;;;8399215;28;20040;-80
2022/07/17 01:43:58;;;;;;;2.95;1.90;;;;;;;;;;8400104;28;20621;-81
2022/07/17 01:48:01;;;;;;;3.75;1.98;;;;;;;;;;8397697;28;20048;-80
2022/07/17 01:52:04;;;;;;;5.38;2.30;;;;;;;;;;8399654;28;20147;-81
2022/07/17 01:56:08;;;;;;;6.90;2.20;;;;;;;;;;8399188;28;20082;-81
2022/07/17 02:00:16;;;;;;;5.28;2.20;;;;;;;;;;8398776;28;20049;-81
2022/07/17 02:04:18;;;;;;;5.05;1.90;;;;;;;;;;8398492;28;20055;-81
2022/07/17 02:08:21;;;;;;;3.25;1.73;;;;;;;;;;8399222;28;20049;-81
2022/07/17 02:12:25;;;;;;;9.25;1.88;;;;;;;;;;8398259;28;20044;-81
2022/07/17 02:16:28;;;;;;;11.13;2.03;;;;;;;;;;8398757;28;20052;-82
2022/07/17 02:20:30;;;;;;;6.70;2.00;;;;;;;;;;8398421;28;20048;-81
2022/07/17 02:24:33;;;;;;;6.75;1.98;;;;;;;;;;8397016;28;20087;-81
2022/07/17 02:28:37;;;;;;;7.88;2.40;;;;;;;;;;8398638;28;20044;-81
2022/07/17 02:32:46;;;;;;;4.90;2.05;;;;;;;;;;8395793;28;20044;-81
2022/07/17 02:36:49;;;;;;;3.60;2.00;;;;;;;;;;8397447;28;20045;-80
2022/07/17 02:40:51;;;;;;;4.25;1.95;;;;;;;;;;8398434;28;20407;-80
2022/07/17 02:44:56;;;;;;;6.40;2.80;;;;;;;;;;8396958;28;20040;-80
2022/07/17 02:48:59;;;;;;;4.00;2.15;;;;;;;;;;8396734;28;20041;-81
2022/07/17 02:53:02;;;;;;;6.05;2.20;;;;;;;;;;8395581;28;20063;-80
2022/07/17 02:57:04;;;;;;;7.32;2.08;;;;;;;;;;8396974;28;20055;-81
2022/07/17 03:01:09;;;;;;;18.08;2.80;;;;;;;;;;8395059;28;20143;-80
2022/07/17 03:05:12;;;;;;;5.05;2.10;;;;;;;;;;8392750;28;20044;-80
2022/07/17 03:09:14;;;;;;;8.95;2.58;;;;;;;;;;8396717;28;20040;-80
2022/07/17 03:13:17;;;;;;;5.70;2.17;;;;;;;;;;8396191;28;20067;-80
2022/07/17 03:17:21;;;;;;;7.95;4.75;;;;;;;;;;8391143;28;20032;-81
2022/07/17 03:21:24;;;;;;;7.00;3.33;;;;;;;;;;8392245;28;20601;-79
2022/07/17 03:25:27;;;;;;;4.90;3.20;;;;;;;;;;8394067;28;20040;-81
2022/07/17 03:29:29;;;;;;;5.57;3.03;;;;;;;;;;8391445;28;20044;-80
2022/07/17 03:33:34;;;;;;;10.07;5.93;;;;;;;;;;8391801;28;20076;-80
2022/07/17 03:37:37;;;;;;;7.70;4.03;;;;;;;;;;8392633;28;20048;-80
2022/07/17 03:41:40;;;;;;;8.00;4.03;;;;;;;;;;8398429;28;20072;-81
2022/07/17 03:45:43;;;;;;;7.45;2.65;;;;;;;;;;8394828;28;20482;-80
2022/07/17 03:49:48;;;;;;;15.82;10.55;;;;;;;;;;8394524;28;20060;-81
2022/07/17 03:53:50;;;;;;;6.45;4.70;;;;;;;;;;8393630;28;20139;-81
2022/07/17 03:57:53;;;;;;;6.13;3.38;;;;;;;;;;8389683;28;20043;-81
2022/07/17 04:01:58;;;;;;;5.63;2.60;;;;;;;;;;8393137;28;20077;-80
2022/07/17 04:06:04;;;;;;;7.50;3.50;;;;;;;;;;8391496;28;20493;-81
2022/07/17 04:10:08;;;;;;;8.80;4.97;;;;;;;;;;8393486;28;20040;-81
2022/07/17 04:14:11;;;;;;;5.43;2.58;;;;;;;;;;8393345;28;20051;-81
2022/07/17 04:18:14;;;;;;;6.63;2.30;;;;;;;;;;8393136;28;20541;-81
2022/07/17 04:22:19;;;;;;;6.95;2.75;;;;;;;;;;8391911;28;20472;-84
2022/07/17 04:26:22;;;;;;;8.35;3.70;;;;;;;;;;8390297;28;20036;-83
2022/07/17 04:30:25;;;;;;;4.63;2.42;;;;;;;;;;8394152;28;20059;-85
2022/07/17 04:34:28;;;;;;;6.40;2.67;;;;;;;;;;8392988;28;20036;-82
2022/07/17 04:38:32;;;;;;;7.43;2.58;;;;;;;;;;8387572;28;20064;-84
2022/07/17 04:42:35;;;;;;;10.00;3.20;;;;;;;;;;8382399;28;20045;-82
2022/07/17 04:46:38;;;;;;;6.97;2.72;;;;;;;;;;8390894;28;20040;-82
2022/07/17 04:50:41;;;;;;;4.55;2.45;;;;;;;;;;8394067;28;20067;-82
2022/07/17 04:54:45;;;;;;;5.32;2.00;;;;;;;;;;8370413;28;20505;-83
2022/07/17 04:58:48;;;;;;;8.30;2.63;;;;;;;;;;8393117;28;20496;-84
2022/07/17 05:02:51;;;;;;;5.68;2.28;;;;;;;;;;8396410;28;20114;-83
2022/07/17 05:06:53;;;;;;;8.75;2.75;;;;;;;;;;8389615;28;20040;-83
2022/07/17 05:10:58;;;;;;;4.95;2.40;;;;;;;;;;8379741;28;20447;-83
2022/07/17 05:15:03;;;;;;;9.57;2.30;;;;;;;;;;8391963;28;20488;-85
2022/07/17 05:19:06;;;;;;;5.68;2.33;;;;;;;;;;8382399;28;20123;-84
2022/07/17 05:23:09;;;;;;;4.25;1.95;;;;;;;;;;8389842;28;20101;-84
2022/07/17 05:27:14;;;;;;;4.78;2.05;;;;;;;;;;8378405;28;20056;-83
2022/07/17 05:31:17;;;;;;;6.07;2.10;;;;;;;;;;8393628;28;20480;-82
2022/07/17 05:35:20;;;;;;;4.60;2.30;;;;;;;;;;8383724;28;20072;-88
2022/07/17 05:39:25;;;;;;;4.38;1.77;;;;;;;;;;8394478;28;20048;-83
2022/07/17 05:43:30;;;;;;;2.60;1.83;;;;;;;;;;8387984;28;20037;-84
2022/07/17 05:47:33;;;;;;;8.02;2.08;;;;;;;;;;8397691;28;20041;-83
2022/07/17 05:51:35;;;;;;;6.28;2.03;;;;;;;;;;8400372;28;20102;-80
2022/07/17 05:55:40;;;;;;;8.68;2.50;;;;;;;;;;8398439;28;20045;-82
2022/07/17 05:59:44;;;;;;;10.13;2.70;;;;;;;;;;8400235;28;20048;-81
2022/07/17 06:03:47;;;;;;;11.50;3.70;;;;;;;;;;8400648;28;20045;-82
2022/07/17 06:07:50;;;;;;;16.08;3.63;;;;;;;;;;8395869;28;20464;-82
2022/07/17 06:11:53;;;;;;;9.55;3.25;;;;;;;;;;8394182;28;20408;-84
2022/07/17 06:16:02;;;;;;;11.55;3.40;;;;;;;;;;8394662;28;20048;-86
2022/07/17 06:20:16;;;;;;;8.20;2.45;;;;;;;;;;8382015;28;20049;-85
2022/07/17 06:24:33;;;;;;;9.57;2.90;;;;;;;;;;8382703;28;20119;-85
2022/07/17 06:28:47;;;;;;;6.43;2.88;;;;;;;;;;8388691;28;20377;-85
2022/07/17 06:33:09;;;;;;;5.53;2.97;;;;;;;;;;8393989;28;20071;-85
2022/07/17 06:37:26;;;;;;;8.68;3.05;;;;;;;;;;8391929;28;20080;-84
2022/07/17 06:41:44;;;;;;;4.88;2.42;;;;;;;;;;8389451;28;20117;-83
2022/07/17 06:46:02;;;;;;;8.25;2.90;;;;;;;;;;8389184;28;20139;-84
2022/07/17 06:50:38;;;;;;;7.03;2.53;;;;;;;;;;8368734;28;20691;-83
2022/07/17 06:54:57;;;;;;;5.85;2.03;;;;;;;;;;8385677;28;20060;-84
2022/07/17 06:59:24;;;;;;;6.03;2.10;;;;;;;;;;8388298;28;20072;-84
2022/07/17 07:03:49;;;;;;;5.55;2.20;;;;;;;;;;8389117;28;20048;-85
2022/07/17 07:08:47;;;;;;;5.70;2.47;;;;;;;;;;8381325;28;20052;-83
2022/07/17 07:13:35;;;;;;;10.05;2.72;;;;;;;;;;8390979;28;20044;-88
2022/07/17 07:22:51;;;;;;;8.70;2.30;;;;;;;;;;8388042;28;20047;-87
2022/07/17 07:27:01;;;;;;;5.25;2.03;;;;;;;;;;8380048;28;20052;-86
2022/07/17 07:31:07;;;;;;;4.70;1.77;;;;;;;;;;8397807;28;20050;-86
2022/07/17 07:35:13;;;;;;;4.43;1.70;;;;;;;;;;8391123;28;20043;-85
2022/07/17 07:39:19;;;;;;;7.60;1.83;;;;;;;;;;8393886;28;20166;-85
2022/07/17 07:43:25;;;;;;;3.85;1.60;;;;;;;;;;8393020;28;20044;-84
2022/07/17 07:47:29;;;;;;;7.05;1.92;;;;;;;;;;8395536;28;20055;-85
2022/07/17 07:51:43;;;;;;;6.95;1.70;;;;;;;;;;8395957;28;20579;-91
2022/07/17 07:55:47;;;;;;;3.17;1.40;;;;;;;;;;8391350;28;20040;-86
2022/07/17 07:59:55;;;;;;;4.43;1.58;;;;;;;;;;8386413;28;20052;-85
2022/07/17 08:04:00;;;;;;;8.38;2.17;;;;;;;;;;8396588;28;20067;-85
2022/07/17 08:08:07;;;;;;;6.25;2.00;;;;;;;;;;8396750;28;20381;-87
2022/07/17 08:12:10;;;;;;;2.72;1.20;;;;;;;;;;8396594;28;20049;-84
2022/07/17 08:16:15;;;;;;;5.75;1.45;;;;;;;;;;8396486;28;20048;-83
2022/07/17 08:20:24;;;;;;;3.47;1.48;;;;;;;;;;8392014;28;20396;-85
2022/07/17 08:24:34;;;;;;;2.70;1.30;;;;;;;;;;8392050;28;20052;-86
2022/07/17 08:28:39;;;;;;;2.40;1.48;;;;;;;;;;8396029;28;20044;-86
2022/07/17 08:33:00;;;;;;;5.15;1.92;;;;;;;;;;8395768;28;20064;-84
2022/07/17 08:37:16;;;;;;;4.68;1.63;;;;;;;;;;8388377;28;20060;-87
2022/07/17 08:41:22;;;;;;;6.07;1.45;;;;;;;;;;8394506;28;20044;-87
2022/07/17 08:45:27;;;;;;;5.97;1.90;;;;;;;;;;8381778;28;20129;-85
2022/07/17 08:49:37;;;;;;;2.83;1.30;;;;;;;;;;8390746;28;20051;-86
2022/07/17 08:53:49;;;;;;;2.92;1.27;;;;;;;;;;8386205;28;20064;-88
2022/07/17 08:57:57;;;;;;;2.63;1.52;;;;;;;;;;8396445;28;20536;-85
2022/07/17 09:07:17;;;;;;;2.55;1.10;;;;;;;;;;8393081;28;20049;-85
2022/07/17 09:11:22;;;;;;;6.45;2.30;;;;;;;;;;8394510;28;20055;-86
2022/07/17 09:15:38;;;;;;;6.03;1.75;;;;;;;;;;8392731;28;20044;-87
2022/07/17 09:19:49;;;;;;;4.35;1.52;;;;;;;;;;8392817;28;20037;-85
2022/07/17 09:24:05;;;;;;;5.55;1.90;;;;;;;;;;8374885;28;20139;-84
2022/07/17 09:28:12;;;;;;;6.88;1.70;;;;;;;;;;8396413;28;20473;-86
2022/07/17 09:32:19;;;;;;;2.85;1.00;;;;;;;;;;8394078;28;20071;-88
2022/07/17 09:36:23;;;;;;;4.78;1.45;;;;;;;;;;8394292;28;20575;-88
2022/07/17 09:45:02;;;;;;;2.35;1.10;;;;;;;;;;8371444;28;20511;-88
2022/07/17 09:49:10;;;;;;;2.80;0.90;;;;;;;;;;8395331;28;20076;-90
2022/07/17 09:53:19;;;;;;;5.40;1.30;;;;;;;;;;8384676;28;20087;-84
2022/07/17 09:57:28;;;;;;;3.42;2.38;;;;;;;;;;8385578;28;20041;-94
2022/07/17 10:01:32;;;;;;;3.40;0.88;;;;;;;;;;8381789;28;20054;-87
2022/07/17 10:05:35;;;;;;;2.60;0.85;;;;;;;;;;8396497;28;20051;-85
2022/07/17 10:09:39;;;;;;;1.15;0.80;;;;;;;;;;8399736;28;20093;-89
2022/07/17 10:13:47;;;;;;;2.38;0.95;;;;;;;;;;8400053;28;20051;-86
2022/07/17 10:17:52;;;;;;;2.45;1.08;;;;;;;;;;8400206;28;20052;-85
2022/07/17 10:21:58;;;;;;;4.22;1.55;;;;;;;;;;8399421;28;20139;-83
2022/07/17 10:26:01;;;;;;;4.82;1.85;;;;;;;;;;8399617;28;20102;-88
2022/07/17 10:30:09;;;;;;;4.82;1.85;;;;;;;;;;8399510;28;20408;-85
2022/07/17 10:34:12;;;;;;;3.58;1.20;;;;;;;;;;8399643;28;20048;-86
2022/07/17 10:38:16;;;;;;;1.30;0.73;;;;;;;;;;8399529;28;20044;-91
2022/07/17 10:42:40;;;;;;;3.35;0.93;;;;;;;;;;8399924;28;20044;-88
2022/07/17 10:46:45;;;;;;;1.90;0.93;;;;;;;;;;8399241;28;20037;-90
2022/07/17 10:50:50;;;;;;;3.50;1.40;;;;;;;;;;8399080;28;20044;-88
2022/07/17 10:54:54;;;;;;;1.85;1.05;;;;;;;;;;8398681;28;20058;-87
2022/07/17 10:59:04;;;;;;;5.35;1.80;;;;;;;;;;8398823;28;20378;-91
2022/07/17 11:03:13;;;;;;;8.63;3.03;;;;;;;;;;8398836;28;20048;-86
2022/07/17 11:07:17;;;;;;;9.63;2.60;;;;;;;;;;8398134;28;20044;-86
2022/07/17 11:11:23;;;;;;;6.63;1.80;;;;;;;;;;8398127;28;20064;-86
2022/07/17 11:15:26;;;;;;;4.78;1.60;;;;;;;;;;8397739;28;20040;-90
2022/07/17 11:19:33;;;;;;;3.65;1.40;;;;;;;;;;8398421;28;20041;-94
2022/07/17 11:23:37;;;;;;;3.40;1.17;;;;;;;;;;8398367;28;20040;-90
2022/07/17 11:27:41;;;;;;;4.75;1.15;;;;;;;;;;8397823;28;20036;-86
2022/07/17 11:31:46;;;;;;;3.58;1.40;;;;;;;;;;8397933;28;20044;-88
2022/07/17 11:35:51;;;;;;;3.28;1.67;;;;;;;;;;8397914;28;20060;-88
2022/07/17 11:39:56;;;;;;;6.55;1.60;;;;;;;;;;8397514;28;20043;-89
2022/07/17 11:44:09;;;;;;;6.55;2.05;;;;;;;;;;8397432;28;20048;-86
2022/07/17 11:48:15;;;;;;;7.10;1.65;;;;;;;;;;8397881;28;20048;-89
2022/07/17 11:52:22;;;;;;;5.60;2.30;;;;;;;;;;8397924;28;20057;-87
2022/07/17 11:56:25;;;;;;;3.03;1.15;;;;;;;;;;8406007;28;20040;-87
2022/07/17 12:00:28;;;;;;;2.40;1.00;;;;;;;;;;8403403;28;20052;-90
2022/07/17 12:04:32;;;;;;;2.50;1.10;;;;;;;;;;8399576;28;20055;-89
2022/07/17 12:08:38;;;;;;;2.50;1.05;;;;;;;;;;8396617;28;20119;-87
2022/07/17 12:12:41;;;;;;;4.00;1.63;;;;;;;;;;8397033;28;20056;-92
2022/07/17 12:16:45;;;;;;;5.00;1.35;;;;;;;;;;8396466;28;20044;-89
2022/07/17 12:20:51;;;;;;;1.80;1.42;;;;;;;;;;8397073;28;20061;-90
2022/07/17 12:24:57;;;;;;;2.33;1.02;;;;;;;;;;8397023;28;20041;-91
2022/07/17 12:29:02;;;;;;;2.85;1.15;;;;;;;;;;8400229;28;20068;-87
2022/07/17 12:33:07;;;;;;;2.85;1.40;;;;;;;;;;8403514;28;20127;-86
2022/07/17 12:37:10;;;;;;;2.42;1.13;;;;;;;;;;8403283;28;20532;-92
2022/07/17 12:41:15;;;;;;;11.43;1.77;;;;;;;;;;8403595;28;20044;-93
2022/07/17 12:45:19;;;;;;;4.88;1.92;;;;;;;;;;8403809;28;20041;-87
2022/07/17 12:49:23;;;;;;;4.10;1.33;;;;;;;;;;8402723;28;20098;-90
2022/07/17 12:53:27;;;;;;;4.55;1.50;;;;;;;;;;8399312;28;20064;-91
2022/07/17 12:57:33;;;;;;;4.22;1.40;;;;;;;;;;8401064;28;20115;-89
2022/07/17 13:01:39;;;;;;;2.88;1.00;;;;;;;;;;8405689;28;20052;-88
2022/07/17 13:05:44;;;;;;;3.25;1.27;;;;;;;;;;8403888;28;20036;-89
2022/07/17 13:09:57;;;;;;;2.80;1.25;;;;;;;;;;8404552;28;20040;-94
2022/07/17 13:14:13;;;;;;;1.88;1.02;;;;;;;;;;8403755;28;20078;-86
2022/07/17 13:18:21;;;;;;;7.93;1.58;;;;;;;;;;8404847;28;20040;-92
2022/07/17 13:22:27;;;;;;;6.78;1.60;;;;;;;;;;8385948;28;20055;-88
2022/07/17 13:26:34;;;;;;;3.92;1.38;;;;;;;;;;8404581;28;20098;-89
2022/07/17 13:30:41;;;;;;;3.15;1.25;;;;;;;;;;8404658;28;20044;-86
2022/07/17 13:35:02;;;;;;;6.60;1.80;;;;;;;;;;8404576;28;20081;-91
2022/07/17 13:39:11;;;;;;;7.28;1.40;;;;;;;;;;8402575;28;20037;-91
2022/07/17 13:43:18;;;;;;;5.22;1.55;;;;;;;;;;8403832;28;20086;-89
2022/07/17 13:47:25;;;;;;;3.38;1.10;;;;;;;;;;8404916;28;20041;-89
2022/07/17 13:51:32;;;;;;;6.60;2.90;;;;;;;;;;8403815;28;20040;-87
2022/07/17 13:55:37;;;;;;;3.80;1.08;;;;;;;;;;8402994;28;20046;-89
2022/07/17 13:59:42;;;;;;;6.18;1.50;;;;;;;;;;8403046;28;20047;-88
2022/07/17 14:04:14;;;;;;;6.82;2.78;;;;;;;;;;8385165;28;20037;-88
2022/07/17 14:08:20;;;;;;;2.88;1.35;;;;;;;;;;8402602;28;20098;-94
2022/07/17 14:12:24;;;;;;;2.97;1.00;;;;;;;;;;8402449;28;20047;-92
2022/07/17 14:16:31;;;;;;;3.00;1.13;;;;;;;;;;8402313;28;20093;-92
2022/07/17 14:20:37;;;;;;;5.40;1.48;;;;;;;;;;8384188;28;20113;-89
2022/07/17 14:24:42;;;;;;;3.15;1.65;;;;;;;;;;8402573;28;20040;-95
2022/07/17 14:28:46;;;;;;;6.00;1.70;;;;;;;;;;8402609;28;20058;-88
2022/07/17 14:32:53;;;;;;;4.63;2.00;;;;;;;;;;8383669;28;20089;-90
2022/07/17 14:37:02;;;;;;;2.78;1.30;;;;;;;;;;8402033;28;20040;-90
2022/07/17 14:41:08;;;;;;;2.65;1.20;;;;;;;;;;8401897;28;20040;-89
2022/07/17 14:45:13;;;;;;;3.40;1.13;;;;;;;;;;8401114;28;20044;-94
2022/07/17 14:49:18;;;;;;;4.18;1.40;;;;;;;;;;8382914;28;20051;-86
2022/07/17 14:53:24;;;;;;;7.53;3.10;;;;;;;;;;8400457;28;20055;-88
2022/07/17 14:57:29;;;;;;;2.55;1.27;;;;;;;;;;8400861;28;20044;-87
2022/07/17 15:01:34;;;;;;;3.60;1.20;;;;;;;;;;8400496;28;20368;-86
2022/07/17 15:05:39;;;;;;;5.00;1.77;;;;;;;;;;8400705;28;20040;-86
2022/07/17 15:09:45;;;;;;;5.95;1.27;;;;;;;;;;8401139;28;20040;-86
2022/07/17 15:13:52;;;;;;;3.17;1.23;;;;;;;;;;8399737;28;20072;-88
2022/07/17 15:17:57;;;;;;;5.55;1.85;;;;;;;;;;8399606;28;20062;-85
2022/07/17 15:22:02;;;;;;;6.25;2.13;;;;;;;;;;8399799;28;20044;-85
2022/07/17 15:26:13;;;;;;;6.38;1.50;;;;;;;;;;8399484;28;20044;-86
2022/07/17 15:30:22;;;;;;;4.20;1.95;;;;;;;;;;8400185;28;20048;-86
2022/07/17 15:34:30;;;;;;;7.47;2.90;;;;;;;;;;8400113;28;20047;-88
2022/07/17 15:38:37;;;;;;;8.70;2.60;;;;;;;;;;8400510;28;20044;-86
2022/07/17 15:42:50;;;;;;;5.28;1.60;;;;;;;;;;8399111;28;20051;-88
2022/07/17 15:47:02;;;;;;;3.40;1.50;;;;;;;;;;8381816;28;20055;-86
2022/07/17 15:51:12;;;;;;;2.80;1.23;;;;;;;;;;8381325;28;20041;-86
2022/07/17 15:55:33;;;;;;;2.10;1.20;;;;;;;;;;8399674;28;20135;-86
2022/07/17 15:59:48;;;;;;;2.17;1.40;;;;;;;;;;8398658;28;20040;-89
2022/07/17 16:03:55;;;;;;;4.68;1.25;;;;;;;;;;8381526;28;20049;-86
2022/07/17 16:08:01;;;;;;;1.90;1.10;;;;;;;;;;8399653;28;20086;-86
2022/07/17 16:12:06;;;;;;;4.47;1.23;;;;;;;;;;8398485;28;20123;-87
2022/07/17 16:16:12;;;;;;;4.45;1.70;;;;;;;;;;8399412;28;20063;-89
2022/07/17 16:20:17;;;;;;;3.33;1.42;;;;;;;;;;8399725;28;20063;-86
2022/07/17 16:24:21;;;;;;;5.72;2.60;;;;;;;;;;8400197;28;20060;-86
2022/07/17 16:28:26;;;;;;;4.97;1.73;;;;;;;;;;8408735;28;20049;-91
2022/07/17 16:32:34;;;;;;;7.97;1.67;;;;;;;;;;8380856;28;20055;-87
2022/07/17 16:36:39;;;;;;;5.00;1.42;;;;;;;;;;8398045;28;20087;-87
2022/07/17 16:40:45;;;;;;;7.30;2.03;;;;;;;;;;8399308;28;20041;-86
2022/07/17 16:44:50;;;;;;;2.58;1.52;;;;;;;;;;8397956;28;20037;-88
2022/07/17 16:48:57;;;;;;;4.03;1.70;;;;;;;;;;8397911;28;20058;-91
2022/07/17 16:53:01;;;;;;;3.67;1.35;;;;;;;;;;8398248;28;20170;-85
2022/07/17 16:57:06;;;;;;;4.40;1.70;;;;;;;;;;8397551;28;20105;-85
2022/07/17 17:01:11;;;;;;;5.22;2.03;;;;;;;;;;8398140;28;20064;-86
2022/07/17 17:05:16;;;;;;;3.25;1.70;;;;;;;;;;8397594;28;20060;-86
2022/07/17 17:09:24;;;;;;;7.60;2.50;;;;;;;;;;8397496;28;20044;-85
2022/07/17 17:13:29;;;;;;;11.32;3.13;;;;;;;;;;8381840;28;20044;-85
2022/07/17 17:17:33;;;;;;;4.50;1.30;;;;;;;;;;8404937;28;20135;-87
2022/07/17 17:21:40;;;;;;;5.53;1.75;;;;;;;;;;8404299;28;20044;-85
2022/07/17 17:25:45;;;;;;;7.18;2.78;;;;;;;;;;8403341;28;20075;-85
2022/07/17 17:29:49;;;;;;;11.48;3.60;;;;;;;;;;8403125;28;20037;-84
2022/07/17 17:33:55;;;;;;;10.65;2.90;;;;;;;;;;8403503;28;20032;-84
2022/07/17 17:38:02;;;;;;;8.10;3.42;;;;;;;;;;8402851;28;20036;-85
2022/07/17 17:42:18;;;;;;;9.85;3.22;;;;;;;;;;8402792;28;20052;-86
2022/07/17 17:46:28;;;;;;;13.38;3.78;;;;;;;;;;8403989;28;20037;-88
2022/07/17 17:50:39;;;;;;;15.20;4.15;;;;;;;;;;8402582;28;20044;-85
2022/07/17 17:54:45;;;;;;;12.95;3.65;;;;;;;;;;8401908;28;20048;-86
2022/07/17 17:59:02;;;;;;;13.30;4.70;;;;;;;;;;8402998;28;20048;-90
2022/07/17 18:03:56;;;;;;;13.80;4.07;;;;;;;;;;8403242;28;20048;-84
2022/07/17 18:08:24;;;;;;;17.15;4.05;;;;;;;;;;8403040;28;20036;-84
2022/07/17 18:13:13;;;;;;;11.55;4.18;;;;;;;;;;8402010;28;20068;-84
2022/07/17 18:17:33;;;;;;;10.48;3.35;;;;;;;;;;8401176;28;20044;-84
2022/07/17 18:21:48;;;;;;;10.77;3.15;;;;;;;;;;8401718;28;20051;-84
2022/07/17 18:26:08;;;;;;;11.60;3.70;;;;;;;;;;8402335;28;20044;-84
2022/07/17 18:30:16;;;;;;;12.07;3.23;;;;;;;;;;8401512;28;20079;-84
2022/07/17 18:34:21;;;;;;;12.13;3.90;;;;;;;;;;8402170;28;20055;-84
2022/07/17 18:38:27;;;;;;;7.50;3.22;;;;;;;;;;8400969;28;20064;-84
2022/07/17 18:42:32;;;;;;;9.82;2.65;;;;;;;;;;8401387;28;20044;-86
2022/07/17 18:46:38;;;;;;;7.60;3.38;;;;;;;;;;8401184;28;20239;-86
2022/07/17 18:50:46;;;;;;;7.35;2.85;;;;;;;;;;8401598;28;20083;-84
2022/07/17 18:54:55;;;;;;;11.75;2.85;;;;;;;;;;8400133;28;20067;-84
2022/07/17 18:59:00;;;;;;;4.80;2.28;;;;;;;;;;8400382;28;20067;-85
2022/07/17 19:03:14;;;;;;;5.93;2.30;;;;;;;;;;8400030;28;20047;-84
2022/07/17 19:07:44;;;;;;;5.55;2.60;;;;;;;;;;8399827;28;20042;-84
2022/07/17 19:11:55;;;;;;;5.05;2.90;;;;;;;;;;8400466;28;20071;-85
2022/07/17 19:16:00;;;;;;;;;;;;;;;;;;8383022;28;20098;-87
2022/07/17 19:20:07;;;;;;;7.13;2.95;;;;;;;;;;8399824;28;19917;-90
2022/07/17 19:24:12;;;;;;;6.53;2.60;;;;;;;;;;8382317;28;20056;-84
2022/07/17 19:28:17;;;;;;;9.10;2.58;;;;;;;;;;8399443;28;20036;-85
2022/07/17 19:32:23;;;;;;;4.30;2.22;;;;;;;;;;8381272;28;20067;-84
2022/07/17 19:36:42;;;;;;;5.90;2.65;;;;;;;;;;8398719;28;20078;-84
2022/07/17 19:40:58;;;;;;;5.25;2.55;;;;;;;;;;8399209;28;20127;-85
2022/07/17 19:45:16;;;;;;;8.10;3.42;;;;;;;;;;8398946;28;20049;-84
2022/07/17 19:49:26;;;;;;;7.22;2.50;;;;;;;;;;8398888;28;20044;-84
2022/07/17 19:53:47;;;;;;;5.95;2.80;;;;;;;;;;8399403;28;20048;-84
2022/07/17 19:58:00;;;;;;;11.18;2.72;;;;;;;;;;8398635;28;20040;-87
2022/07/17 20:02:06;;;;;;;7.65;3.13;;;;;;;;;;8381132;28;20054;-86
2022/07/17 20:06:12;;;;;;;8.93;3.10;;;;;;;;;;8398504;28;20113;-85
2022/07/17 20:10:28;;;;;;;6.25;2.50;;;;;;;;;;8398494;28;20037;-83
2022/07/17 20:14:41;;;;;;;5.07;2.53;;;;;;;;;;8398934;28;20067;-84
2022/07/17 20:18:53;;;;;;;4.10;2.75;;;;;;;;;;8399226;28;20294;-84
2022/07/17 20:23:38;;;;;;;9.57;2.47;;;;;;;;;;8398166;28;20060;-83
2022/07/17 20:27:51;;;;;;;9.30;2.75;;;;;;;;;;8398187;28;20049;-83
2022/07/17 20:32:15;;;;;;;7.05;2.38;;;;;;;;;;8398263;28;20045;-84
2022/07/17 20:36:37;;;;;;;6.47;2.42;;;;;;;;;;8400074;28;20080;-83
2022/07/17 20:40:55;;;;;;;10.73;2.90;;;;;;;;;;8399901;28;20041;-83
2022/07/17 20:45:01;;;;;;;6.28;2.50;;;;;;;;;;8380355;28;20041;-84
2022/07/17 20:49:06;;;;;;;7.55;2.40;;;;;;;;;;8400216;28;20061;-82
2022/07/17 20:53:11;;;;;;;6.25;2.67;;;;;;;;;;8404165;28;20127;-83
2022/07/17 20:57:17;;;;;;;8.25;2.80;;;;;;;;;;8404105;28;20067;-83
2022/07/17 21:01:24;;;;;;;7.22;3.00;;;;;;;;;;8404470;28;20040;-83
2022/07/17 21:05:30;;;;;;;4.43;2.67;;;;;;;;;;8404943;28;20048;-83
2022/07/17 21:09:34;;;;;;;7.15;3.00;;;;;;;;;;8386353;28;20105;-83
2022/07/17 21:13:39;;;;;;;6.85;3.28;;;;;;;;;;8403708;28;20075;-83
2022/07/17 21:17:44;;;;;;;5.68;2.60;;;;;;;;;;8404412;28;20072;-83
2022/07/17 21:21:50;;;;;;;7.53;2.97;;;;;;;;;;8404366;28;20078;-83
2022/07/17 21:25:54;;;;;;;6.90;3.00;;;;;;;;;;8385849;28;20048;-83
2022/07/17 21:29:59;;;;;;;6.57;2.78;;;;;;;;;;8403365;28;20082;-83
2022/07/17 21:34:05;;;;;;;6.90;2.83;;;;;;;;;;8403656;28;20040;-83
2022/07/17 21:38:10;;;;;;;8.93;3.53;;;;;;;;;;8403374;28;20047;-83
2022/07/17 21:42:14;;;;;;;7.03;3.38;;;;;;;;;;8403057;28;20041;-83
2022/07/17 21:46:19;;;;;;;5.72;3.22;;;;;;;;;;8402798;28;20079;-83
2022/07/17 21:50:24;;;;;;;6.65;3.20;;;;;;;;;;8403087;28;20064;-83
2022/07/17 21:54:29;;;;;;;10.15;3.10;;;;;;;;;;8402543;28;20049;-83
2022/07/17 21:58:35;;;;;;;5.18;2.75;;;;;;;;;;8402165;28;20061;-83
2022/07/17 22:02:40;;;;;;;6.57;2.65;;;;;;;;;;8402105;28;20071;-83
2022/07/17 22:06:46;;;;;;;8.63;3.10;;;;;;;;;;8384487;28;20043;-83
2022/07/17 22:10:51;;;;;;;6.20;3.20;;;;;;;;;;8401883;28;20049;-83
2022/07/17 22:14:55;;;;;;;4.82;3.20;;;;;;;;;;8401780;28;20041;-83
2022/07/17 22:18:59;;;;;;;6.72;3.30;;;;;;;;;;8401647;28;20078;-83
2022/07/17 22:23:05;;;;;;;6.70;3.00;;;;;;;;;;8401619;28;20071;-83
2022/07/17 22:27:10;;;;;;;8.07;3.00;;;;;;;;;;8402937;28;20068;-83
2022/07/17 22:31:14;;;;;;;6.28;3.00;;;;;;;;;;8402328;28;20119;-83
2022/07/17 22:35:18;;;;;;;8.63;3.17;;;;;;;;;;8402608;28;20044;-83
2022/07/17 22:39:24;;;;;;;7.78;3.47;;;;;;;;;;8401081;28;20071;-83
2022/07/17 22:43:27;;;;;;;5.97;2.92;;;;;;;;;;8401511;28;20064;-83
2022/07/17 22:47:31;;;;;;;5.28;2.90;;;;;;;;;;8401723;28;20041;-83
2022/07/17 22:51:35;;;;;;;5.40;3.10;;;;;;;;;;8401338;28;20059;-83
2022/07/17 22:55:40;;;;;;;6.68;2.80;;;;;;;;;;8401349;28;20091;-83
2022/07/17 22:59:45;;;;;;;8.57;3.13;;;;;;;;;;8401232;28;20071;-83
2022/07/17 23:03:49;;;;;;;6.55;3.00;;;;;;;;;;8400124;28;20044;-83
2022/07/17 23:07:54;;;;;;;6.80;3.33;;;;;;;;;;8400080;28;20075;-83
2022/07/17 23:12:00;;;;;;;4.53;2.83;;;;;;;;;;8400591;28;20127;-83
2022/07/17 23:16:04;;;;;;;5.72;3.08;;;;;;;;;;8401216;28;20064;-84
2022/07/17 23:20:09;;;;;;;5.13;2.90;;;;;;;;;;8400628;28;20097;-83
2022/07/17 23:24:13;;;;;;;6.90;3.22;;;;;;;;;;8401399;28;20056;-83
2022/07/17 23:28:18;;;;;;;6.53;2.78;;;;;;;;;;8400790;28;20124;-82
2022/07/17 23:32:25;;;;;;;5.15;2.72;;;;;;;;;;8400375;28;20072;-82
2022/07/17 23:36:29;;;;;;;4.93;2.63;;;;;;;;;;8381683;28;20060;-83
2022/07/17 23:40:32;;;;;;;6.22;2.97;;;;;;;;;;8400094;28;20063;-82
2022/07/17 23:44:41;;;;;;;7.40;3.10;;;;;;;;;;8399911;28;20064;-82
2022/07/17 23:48:45;;;;;;;5.25;2.88;;;;;;;;;;8399850;28;20040;-82
2022/07/17 23:52:48;;;;;;;6.95;3.28;;;;;;;;;;8398530;28;20083;-82
2022/07/17 23:56:52;;;;;;;5.75;2.90;;;;;;;;;;8398628;28;20071;-82
